sensor_id;sensor_type;location;lat;lon;timestamp;temperature;humidity
23271;DHT22;11804;51.118;17.058;2023-06-04T00:01:03;11.50;65.40
23271;DHT22;11804;51.118;17.058;2023-06-04T00:03:31;11.60;65.00
23271;DHT22;11804;51.118;17.058;2023-06-04T00:05:59;11.40;66.20
23271;DHT22;11804;51.118;17.058;2023-06-04T00:08:26;11.30;66.80
23271;DHT22;11804;51.118;17.058;2023-06-04T00:10:54;11.30;67.50
23271;DHT22;11804;51.118;17.058;2023-06-04T00:13:21;11.20;67.90
23271;DHT22;11804;51.118;17.058;2023-06-04T00:15:49;11.20;68.40
23271;DHT22;11804;51.118;17.058;2023-06-04T00:18:17;11.20;68.70
23271;DHT22;11804;51.118;17.058;2023-06-04T00:20:44;11.30;68.30
23271;DHT22;11804;51.118;17.058;2023-06-04T00:23:12;11.30;68.20
23271;DHT22;11804;51.118;17.058;2023-06-04T00:25:39;11.20;69.20
23271;DHT22;11804;51.118;17.058;2023-06-04T00:28:07;11.20;70.50
23271;DHT22;11804;51.118;17.058;2023-06-04T00:30:35;11.20;70.00
23271;DHT22;11804;51.118;17.058;2023-06-04T00:33:02;11.10;70.00
23271;DHT22;11804;51.118;17.058;2023-06-04T00:35:32;11.20;70.00
23271;DHT22;11804;51.118;17.058;2023-06-04T00:37:59;11.10;70.80
23271;DHT22;11804;51.118;17.058;2023-06-04T00:40:28;11.10;70.70
23271;DHT22;11804;51.118;17.058;2023-06-04T00:42:56;11.00;71.70
23271;DHT22;11804;51.118;17.058;2023-06-04T00:45:24;10.90;72.80
23271;DHT22;11804;51.118;17.058;2023-06-04T00:47:53;10.90;73.30
23271;DHT22;11804;51.118;17.058;2023-06-04T00:50:20;10.80;74.20
23271;DHT22;11804;51.118;17.058;2023-06-04T00:52:49;10.70;75.90
23271;DHT22;11804;51.118;17.058;2023-06-04T00:55:17;10.80;75.60
23271;DHT22;11804;51.118;17.058;2023-06-04T00:57:45;11.00;75.00
23271;DHT22;11804;51.118;17.058;2023-06-04T01:00:13;10.80;76.80
23271;DHT22;11804;51.118;17.058;2023-06-04T01:02:42;10.70;78.20
23271;DHT22;11804;51.118;17.058;2023-06-04T01:05:26;10.60;80.40
23271;DHT22;11804;51.118;17.058;2023-06-04T01:07:45;10.60;80.80
23271;DHT22;11804;51.118;17.058;2023-06-04T01:10:14;10.60;82.30
23271;DHT22;11804;51.118;17.058;2023-06-04T01:12:43;10.70;81.00
23271;DHT22;11804;51.118;17.058;2023-06-04T01:15:11;10.70;81.60
23271;DHT22;11804;51.118;17.058;2023-06-04T01:17:44;10.70;82.30
23271;DHT22;11804;51.118;17.058;2023-06-04T01:25:41;10.40;86.80
23271;DHT22;11804;51.118;17.058;2023-06-04T01:28:12;10.30;88.70
23271;DHT22;11804;51.118;17.058;2023-06-04T01:30:44;10.40;89.50
23271;DHT22;11804;51.118;17.058;2023-06-04T01:33:19;10.30;90.20
23271;DHT22;11804;51.118;17.058;2023-06-04T01:35:47;10.30;90.80
23271;DHT22;11804;51.118;17.058;2023-06-04T01:38:15;10.30;91.60
23271;DHT22;11804;51.118;17.058;2023-06-04T01:40:43;10.40;90.90
23271;DHT22;11804;51.118;17.058;2023-06-04T01:43:11;10.40;90.80
23271;DHT22;11804;51.118;17.058;2023-06-04T01:45:39;10.40;90.90
23271;DHT22;11804;51.118;17.058;2023-06-04T01:48:07;10.40;90.70
23271;DHT22;11804;51.118;17.058;2023-06-04T01:50:34;10.50;90.00
23271;DHT22;11804;51.118;17.058;2023-06-04T01:53:02;10.60;90.00
23271;DHT22;11804;51.118;17.058;2023-06-04T01:55:30;10.50;89.50
23271;DHT22;11804;51.118;17.058;2023-06-04T01:57:59;10.30;90.90
23271;DHT22;11804;51.118;17.058;2023-06-04T02:00:27;10.30;91.40
23271;DHT22;11804;51.118;17.058;2023-06-04T02:02:55;10.30;91.50
23271;DHT22;11804;51.118;17.058;2023-06-04T02:05:23;10.20;92.00
23271;DHT22;11804;51.118;17.058;2023-06-04T02:07:50;10.20;93.20
23271;DHT22;11804;51.118;17.058;2023-06-04T02:10:19;10.30;92.40
23271;DHT22;11804;51.118;17.058;2023-06-04T02:12:58;10.40;91.70
23271;DHT22;11804;51.118;17.058;2023-06-04T02:15:26;10.50;90.80
23271;DHT22;11804;51.118;17.058;2023-06-04T02:17:57;10.40;91.70
23271;DHT22;11804;51.118;17.058;2023-06-04T02:20:29;10.40;91.60
23271;DHT22;11804;51.118;17.058;2023-06-04T02:22:56;10.30;92.80
23271;DHT22;11804;51.118;17.058;2023-06-04T02:25:24;10.40;92.70
23271;DHT22;11804;51.118;17.058;2023-06-04T02:27:52;10.30;92.60
23271;DHT22;11804;51.118;17.058;2023-06-04T02:30:19;10.10;94.20
23271;DHT22;11804;51.118;17.058;2023-06-04T02:32:47;10.10;95.10
23271;DHT22;11804;51.118;17.058;2023-06-04T02:35:17;10.10;95.60
23271;DHT22;11804;51.118;17.058;2023-06-04T02:37:44;10.00;96.20
23271;DHT22;11804;51.118;17.058;2023-06-04T02:40:12;10.20;95.80
23271;DHT22;11804;51.118;17.058;2023-06-04T02:42:40;10.30;95.50
23271;DHT22;11804;51.118;17.058;2023-06-04T02:45:09;10.20;95.80
23271;DHT22;11804;51.118;17.058;2023-06-04T02:47:37;10.20;96.10
23271;DHT22;11804;51.118;17.058;2023-06-04T02:50:09;10.30;96.20
23271;DHT22;11804;51.118;17.058;2023-06-04T02:52:37;10.20;96.40
23271;DHT22;11804;51.118;17.058;2023-06-04T02:55:08;10.10;97.50
23271;DHT22;11804;51.118;17.058;2023-06-04T02:57:44;10.00;98.90
23271;DHT22;11804;51.118;17.058;2023-06-04T03:00:11;10.00;98.90
23271;DHT22;11804;51.118;17.058;2023-06-04T03:02:44;10.00;99.30
23271;DHT22;11804;51.118;17.058;2023-06-04T03:05:14;9.80;99.90
23271;DHT22;11804;51.118;17.058;2023-06-04T03:07:45;9.90;99.90
23271;DHT22;11804;51.118;17.058;2023-06-04T03:10:14;9.70;99.90
23271;DHT22;11804;51.118;17.058;2023-06-04T03:12:42;9.60;99.90
23271;DHT22;11804;51.118;17.058;2023-06-04T03:15:12;9.60;99.90
23271;DHT22;11804;51.118;17.058;2023-06-04T03:17:41;9.50;99.90
23271;DHT22;11804;51.118;17.058;2023-06-04T03:20:09;9.60;99.90
23271;DHT22;11804;51.118;17.058;2023-06-04T03:22:37;9.90;99.90
23271;DHT22;11804;51.118;17.058;2023-06-04T03:25:05;10.70;99.90
23271;DHT22;11804;51.118;17.058;2023-06-04T03:27:33;11.80;93.90
23271;DHT22;11804;51.118;17.058;2023-06-04T03:30:00;12.70;84.40
23271;DHT22;11804;51.118;17.058;2023-06-04T03:32:28;13.50;77.30
23271;DHT22;11804;51.118;17.058;2023-06-04T03:34:56;14.10;71.70
23271;DHT22;11804;51.118;17.058;2023-06-04T03:37:24;14.50;67.00
23271;DHT22;11804;51.118;17.058;2023-06-04T03:39:52;14.90;64.50
23271;DHT22;11804;51.118;17.058;2023-06-04T03:42:20;15.50;61.40
23271;DHT22;11804;51.118;17.058;2023-06-04T03:44:47;15.70;59.10
23271;DHT22;11804;51.118;17.058;2023-06-04T03:47:15;16.10;57.80
23271;DHT22;11804;51.118;17.058;2023-06-04T03:49:43;16.50;54.80
23271;DHT22;11804;51.118;17.058;2023-06-04T03:52:10;15.60;58.10
23271;DHT22;11804;51.118;17.058;2023-06-04T03:54:38;15.80;57.50
23271;DHT22;11804;51.118;17.058;2023-06-04T03:57:05;15.90;56.80
23271;DHT22;11804;51.118;17.058;2023-06-04T03:59:33;16.60;55.30
23271;DHT22;11804;51.118;17.058;2023-06-04T04:02:01;16.80;54.50
23271;DHT22;11804;51.118;17.058;2023-06-04T04:04:28;17.50;52.60
23271;DHT22;11804;51.118;17.058;2023-06-04T04:06:56;17.50;51.70
23271;DHT22;11804;51.118;17.058;2023-06-04T04:09:23;16.90;53.20
23271;DHT22;11804;51.118;17.058;2023-06-04T04:11:51;17.30;52.80
23271;DHT22;11804;51.118;17.058;2023-06-04T04:14:19;17.80;50.20
23271;DHT22;11804;51.118;17.058;2023-06-04T04:16:47;18.10;49.40
23271;DHT22;11804;51.118;17.058;2023-06-04T04:19:14;18.20;49.00
23271;DHT22;11804;51.118;17.058;2023-06-04T04:21:43;18.10;48.90
23271;DHT22;11804;51.118;17.058;2023-06-04T04:24:10;17.50;49.90
23271;DHT22;11804;51.118;17.058;2023-06-04T04:26:38;18.00;50.40
23271;DHT22;11804;51.118;17.058;2023-06-04T04:29:05;19.50;46.60
23271;DHT22;11804;51.118;17.058;2023-06-04T04:31:35;18.60;47.00
23271;DHT22;11804;51.118;17.058;2023-06-04T04:34:02;18.50;48.00
23271;DHT22;11804;51.118;17.058;2023-06-04T04:36:33;18.70;47.30
23271;DHT22;11804;51.118;17.058;2023-06-04T04:39:03;19.20;45.90
23271;DHT22;11804;51.118;17.058;2023-06-04T04:41:30;19.30;45.00
23271;DHT22;11804;51.118;17.058;2023-06-04T04:44:05;18.50;45.30
23271;DHT22;11804;51.118;17.058;2023-06-04T04:46:33;19.30;44.80
23271;DHT22;11804;51.118;17.058;2023-06-04T04:49:00;19.40;44.50
23271;DHT22;11804;51.118;17.058;2023-06-04T04:51:28;19.80;43.40
23271;DHT22;11804;51.118;17.058;2023-06-04T04:53:55;20.80;41.30
23271;DHT22;11804;51.118;17.058;2023-06-04T04:56:23;19.60;42.20
23271;DHT22;11804;51.118;17.058;2023-06-04T04:58:52;19.40;42.70
23271;DHT22;11804;51.118;17.058;2023-06-04T05:01:21;19.80;42.40
23271;DHT22;11804;51.118;17.058;2023-06-04T05:03:49;20.70;41.40
23271;DHT22;11804;51.118;17.058;2023-06-04T05:06:16;21.30;39.90
23271;DHT22;11804;51.118;17.058;2023-06-04T05:08:44;21.60;38.60
23271;DHT22;11804;51.118;17.058;2023-06-04T05:11:12;21.40;39.10
23271;DHT22;11804;51.118;17.058;2023-06-04T05:13:39;21.80;37.80
23271;DHT22;11804;51.118;17.058;2023-06-04T05:16:09;20.70;39.00
23271;DHT22;11804;51.118;17.058;2023-06-04T05:18:38;20.40;41.10
23271;DHT22;11804;51.118;17.058;2023-06-04T05:21:11;20.20;41.00
23271;DHT22;11804;51.118;17.058;2023-06-04T05:23:41;20.90;40.00
23271;DHT22;11804;51.118;17.058;2023-06-04T05:26:10;21.80;38.60
23271;DHT22;11804;51.118;17.058;2023-06-04T05:28:38;20.80;41.00
23271;DHT22;11804;51.118;17.058;2023-06-04T05:31:05;21.30;39.00
23271;DHT22;11804;51.118;17.058;2023-06-04T05:33:35;19.80;41.20
23271;DHT22;11804;51.118;17.058;2023-06-04T05:36:04;18.60;43.60
23271;DHT22;11804;51.118;17.058;2023-06-04T05:38:31;19.40;44.20
23271;DHT22;11804;51.118;17.058;2023-06-04T05:40:59;19.30;43.80
23271;DHT22;11804;51.118;17.058;2023-06-04T05:43:27;20.60;42.40
23271;DHT22;11804;51.118;17.058;2023-06-04T05:45:54;22.10;38.10
23271;DHT22;11804;51.118;17.058;2023-06-04T05:48:22;21.80;38.90
23271;DHT22;11804;51.118;17.058;2023-06-04T05:50:49;22.70;37.00
23271;DHT22;11804;51.118;17.058;2023-06-04T05:53:17;22.70;35.40
23271;DHT22;11804;51.118;17.058;2023-06-04T05:55:45;22.60;36.60
23271;DHT22;11804;51.118;17.058;2023-06-04T05:58:15;24.00;34.00
23271;DHT22;11804;51.118;17.058;2023-06-04T06:00:43;23.30;34.80
23271;DHT22;11804;51.118;17.058;2023-06-04T06:03:11;22.50;36.10
23271;DHT22;11804;51.118;17.058;2023-06-04T06:05:38;22.70;35.40
23271;DHT22;11804;51.118;17.058;2023-06-04T06:08:06;22.40;36.30
23271;DHT22;11804;51.118;17.058;2023-06-04T06:10:34;23.50;35.70
23271;DHT22;11804;51.118;17.058;2023-06-04T06:13:02;25.10;31.50
23271;DHT22;11804;51.118;17.058;2023-06-04T06:15:29;23.70;33.90
23271;DHT22;11804;51.118;17.058;2023-06-04T06:17:57;24.10;32.60
23271;DHT22;11804;51.118;17.058;2023-06-04T06:20:25;22.80;34.30
23271;DHT22;11804;51.118;17.058;2023-06-04T06:22:53;22.80;35.40
23271;DHT22;11804;51.118;17.058;2023-06-04T06:25:21;23.10;35.50
23271;DHT22;11804;51.118;17.058;2023-06-04T06:27:49;23.00;35.40
23271;DHT22;11804;51.118;17.058;2023-06-04T06:30:17;23.70;34.10
23271;DHT22;11804;51.118;17.058;2023-06-04T06:32:45;24.40;33.20
23271;DHT22;11804;51.118;17.058;2023-06-04T06:35:14;25.60;31.00
23271;DHT22;11804;51.118;17.058;2023-06-04T06:37:42;26.60;30.10
23271;DHT22;11804;51.118;17.058;2023-06-04T06:40:10;26.70;28.60
23271;DHT22;11804;51.118;17.058;2023-06-04T06:42:38;26.40;29.90
23271;DHT22;11804;51.118;17.058;2023-06-04T06:45:06;27.50;28.50
23271;DHT22;11804;51.118;17.058;2023-06-04T06:47:34;27.70;28.70
23271;DHT22;11804;51.118;17.058;2023-06-04T06:50:02;28.00;28.20
23271;DHT22;11804;51.118;17.058;2023-06-04T06:52:30;26.70;28.80
23271;DHT22;11804;51.118;17.058;2023-06-04T06:54:57;26.20;29.70
23271;DHT22;11804;51.118;17.058;2023-06-04T06:57:25;27.20;29.80
23271;DHT22;11804;51.118;17.058;2023-06-04T06:59:52;27.30;28.30
23271;DHT22;11804;51.118;17.058;2023-06-04T07:02:21;25.80;29.90
23271;DHT22;11804;51.118;17.058;2023-06-04T07:04:48;26.10;30.40
23271;DHT22;11804;51.118;17.058;2023-06-04T07:07:16;27.50;29.80
23271;DHT22;11804;51.118;17.058;2023-06-04T07:09:44;26.50;28.60
23271;DHT22;11804;51.118;17.058;2023-06-04T07:12:12;26.90;28.70
23271;DHT22;11804;51.118;17.058;2023-06-04T07:14:42;27.40;29.00
23271;DHT22;11804;51.118;17.058;2023-06-04T07:17:09;28.90;27.30
23271;DHT22;11804;51.118;17.058;2023-06-04T07:19:37;28.20;26.60
23271;DHT22;11804;51.118;17.058;2023-06-04T07:22:05;28.00;28.10
23271;DHT22;11804;51.118;17.058;2023-06-04T07:24:32;28.40;27.00
23271;DHT22;11804;51.118;17.058;2023-06-04T07:27:00;29.40;26.60
23271;DHT22;11804;51.118;17.058;2023-06-04T07:29:27;30.10;26.30
23271;DHT22;11804;51.118;17.058;2023-06-04T07:31:55;30.20;24.40
23271;DHT22;11804;51.118;17.058;2023-06-04T07:34:23;25.90;28.90
23271;DHT22;11804;51.118;17.058;2023-06-04T07:36:50;25.40;29.70
23271;DHT22;11804;51.118;17.058;2023-06-04T07:39:19;26.10;29.30
23271;DHT22;11804;51.118;17.058;2023-06-04T07:41:48;26.50;28.70
23271;DHT22;11804;51.118;17.058;2023-06-04T07:44:17;26.50;29.30
23271;DHT22;11804;51.118;17.058;2023-06-04T07:46:45;26.90;29.10
23271;DHT22;11804;51.118;17.058;2023-06-04T07:49:12;26.50;28.50
23271;DHT22;11804;51.118;17.058;2023-06-04T07:51:40;26.60;29.20
23271;DHT22;11804;51.118;17.058;2023-06-04T07:54:08;25.70;29.20
23271;DHT22;11804;51.118;17.058;2023-06-04T07:56:37;26.30;29.10
23271;DHT22;11804;51.118;17.058;2023-06-04T07:59:05;26.40;28.60
23271;DHT22;11804;51.118;17.058;2023-06-04T08:01:33;27.50;28.40
23271;DHT22;11804;51.118;17.058;2023-06-04T08:04:01;28.60;26.80
23271;DHT22;11804;51.118;17.058;2023-06-04T08:06:29;28.40;26.70
23271;DHT22;11804;51.118;17.058;2023-06-04T08:08:57;25.60;29.90
23271;DHT22;11804;51.118;17.058;2023-06-04T08:11:24;27.00;27.40
23271;DHT22;11804;51.118;17.058;2023-06-04T08:13:52;25.20;28.90
23271;DHT22;11804;51.118;17.058;2023-06-04T08:16:19;25.50;29.10
23271;DHT22;11804;51.118;17.058;2023-06-04T08:18:47;26.70;28.30
23271;DHT22;11804;51.118;17.058;2023-06-04T08:21:21;26.30;28.70
23271;DHT22;11804;51.118;17.058;2023-06-04T08:23:44;25.80;27.20
23271;DHT22;11804;51.118;17.058;2023-06-04T08:26:11;25.10;28.50
23271;DHT22;11804;51.118;17.058;2023-06-04T08:28:40;24.50;29.50
23271;DHT22;11804;51.118;17.058;2023-06-04T08:31:07;24.10;29.40
23271;DHT22;11804;51.118;17.058;2023-06-04T08:33:35;22.50;31.40
23271;DHT22;11804;51.118;17.058;2023-06-04T08:36:03;22.50;30.40
23271;DHT22;11804;51.118;17.058;2023-06-04T08:38:31;22.60;30.00
23271;DHT22;11804;51.118;17.058;2023-06-04T08:41:13;23.40;30.40
23271;DHT22;11804;51.118;17.058;2023-06-04T08:43:42;23.60;29.10
23271;DHT22;11804;51.118;17.058;2023-06-04T08:46:15;22.80;31.40
23271;DHT22;11804;51.118;17.058;2023-06-04T08:48:45;22.70;30.90
23271;DHT22;11804;51.118;17.058;2023-06-04T08:51:13;23.10;31.40
23271;DHT22;11804;51.118;17.058;2023-06-04T08:53:42;25.00;29.40
23271;DHT22;11804;51.118;17.058;2023-06-04T08:56:12;23.40;28.80
23271;DHT22;11804;51.118;17.058;2023-06-04T08:58:40;23.10;30.00
23271;DHT22;11804;51.118;17.058;2023-06-04T09:01:09;22.90;29.40
23271;DHT22;11804;51.118;17.058;2023-06-04T09:03:37;24.30;27.80
23271;DHT22;11804;51.118;17.058;2023-06-04T09:06:05;23.60;28.20
23271;DHT22;11804;51.118;17.058;2023-06-04T09:08:35;23.00;29.50
23271;DHT22;11804;51.118;17.058;2023-06-04T09:11:06;24.50;29.30
23271;DHT22;11804;51.118;17.058;2023-06-04T09:13:35;24.10;28.60
23271;DHT22;11804;51.118;17.058;2023-06-04T09:16:04;22.10;31.50
23271;DHT22;11804;51.118;17.058;2023-06-04T09:18:33;22.40;31.70
23271;DHT22;11804;51.118;17.058;2023-06-04T09:21:03;23.10;29.70
23271;DHT22;11804;51.118;17.058;2023-06-04T09:26:12;25.70;27.00
23271;DHT22;11804;51.118;17.058;2023-06-04T09:28:44;26.50;26.20
23271;DHT22;11804;51.118;17.058;2023-06-04T09:31:16;27.30;26.00
23271;DHT22;11804;51.118;17.058;2023-06-04T09:33:48;28.20;25.60
23271;DHT22;11804;51.118;17.058;2023-06-04T09:36:17;27.80;25.30
23271;DHT22;11804;51.118;17.058;2023-06-04T09:38:45;27.20;25.10
23271;DHT22;11804;51.118;17.058;2023-06-04T09:41:16;27.20;25.00
23271;DHT22;11804;51.118;17.058;2023-06-04T09:43:43;25.50;26.30
23271;DHT22;11804;51.118;17.058;2023-06-04T09:46:12;24.70;28.20
23271;DHT22;11804;51.118;17.058;2023-06-04T09:48:41;26.00;27.00
23271;DHT22;11804;51.118;17.058;2023-06-04T09:51:11;26.90;26.50
23271;DHT22;11804;51.118;17.058;2023-06-04T09:53:39;25.70;26.00
23271;DHT22;11804;51.118;17.058;2023-06-04T09:56:07;23.20;28.10
23271;DHT22;11804;51.118;17.058;2023-06-04T09:58:38;23.30;27.90
23271;DHT22;11804;51.118;17.058;2023-06-04T10:01:06;24.00;27.60
23271;DHT22;11804;51.118;17.058;2023-06-04T10:03:35;23.90;27.70
23271;DHT22;11804;51.118;17.058;2023-06-04T10:06:04;23.50;28.50
23271;DHT22;11804;51.118;17.058;2023-06-04T10:08:33;23.00;29.40
23271;DHT22;11804;51.118;17.058;2023-06-04T10:11:03;23.30;30.00
23271;DHT22;11804;51.118;17.058;2023-06-04T10:16:20;23.00;29.80
23271;DHT22;11804;51.118;17.058;2023-06-04T10:18:49;22.10;31.20
23271;DHT22;11804;51.118;17.058;2023-06-04T10:21:19;23.10;30.30
23271;DHT22;11804;51.118;17.058;2023-06-04T10:23:47;23.30;29.10
23271;DHT22;11804;51.118;17.058;2023-06-04T10:26:16;24.60;27.80
23271;DHT22;11804;51.118;17.058;2023-06-04T10:28:44;25.70;26.50
23271;DHT22;11804;51.118;17.058;2023-06-04T10:31:12;26.20;26.00
23271;DHT22;11804;51.118;17.058;2023-06-04T10:33:40;25.10;26.60
23271;DHT22;11804;51.118;17.058;2023-06-04T10:36:19;24.30;27.80
23271;DHT22;11804;51.118;17.058;2023-06-04T10:38:49;23.90;28.30
23271;DHT22;11804;51.118;17.058;2023-06-04T10:41:19;23.70;28.00
23271;DHT22;11804;51.118;17.058;2023-06-04T10:43:50;23.10;27.80
23271;DHT22;11804;51.118;17.058;2023-06-04T10:46:19;22.90;28.20
23271;DHT22;11804;51.118;17.058;2023-06-04T10:48:51;22.10;29.40
23271;DHT22;11804;51.118;17.058;2023-06-04T10:51:35;21.70;30.60
23271;DHT22;11804;51.118;17.058;2023-06-04T10:54:05;22.10;30.00
23271;DHT22;11804;51.118;17.058;2023-06-04T10:56:34;22.80;29.40
23271;DHT22;11804;51.118;17.058;2023-06-04T10:59:17;22.00;30.00
23271;DHT22;11804;51.118;17.058;2023-06-04T11:01:46;22.00;30.80
23271;DHT22;11804;51.118;17.058;2023-06-04T11:04:23;22.70;29.90
23271;DHT22;11804;51.118;17.058;2023-06-04T11:09:33;23.60;28.50
23271;DHT22;11804;51.118;17.058;2023-06-04T11:12:04;23.90;29.00
23271;DHT22;11804;51.118;17.058;2023-06-04T11:14:32;23.60;28.70
23271;DHT22;11804;51.118;17.058;2023-06-04T11:17:10;22.80;29.70
23271;DHT22;11804;51.118;17.058;2023-06-04T11:19:38;22.30;30.40
23271;DHT22;11804;51.118;17.058;2023-06-04T11:22:11;21.90;30.90
23271;DHT22;11804;51.118;17.058;2023-06-04T11:24:39;22.00;31.40
23271;DHT22;11804;51.118;17.058;2023-06-04T11:27:07;22.10;31.50
23271;DHT22;11804;51.118;17.058;2023-06-04T11:29:34;22.50;31.40
23271;DHT22;11804;51.118;17.058;2023-06-04T11:32:04;22.80;30.20
23271;DHT22;11804;51.118;17.058;2023-06-04T11:34:32;22.40;30.10
23271;DHT22;11804;51.118;17.058;2023-06-04T11:37:09;22.30;30.00
23271;DHT22;11804;51.118;17.058;2023-06-04T11:39:37;22.70;29.70
23271;DHT22;11804;51.118;17.058;2023-06-04T11:42:07;22.20;30.10
23271;DHT22;11804;51.118;17.058;2023-06-04T11:44:35;21.90;31.20
23271;DHT22;11804;51.118;17.058;2023-06-04T11:47:07;22.30;30.50
23271;DHT22;11804;51.118;17.058;2023-06-04T11:49:36;22.50;30.30
23271;DHT22;11804;51.118;17.058;2023-06-04T11:52:04;22.90;30.60
23271;DHT22;11804;51.118;17.058;2023-06-04T11:54:33;23.40;30.90
23271;DHT22;11804;51.118;17.058;2023-06-04T11:57:05;23.40;29.60
23271;DHT22;11804;51.118;17.058;2023-06-04T11:59:33;23.10;29.90
23271;DHT22;11804;51.118;17.058;2023-06-04T12:02:02;23.10;30.50
23271;DHT22;11804;51.118;17.058;2023-06-04T12:04:30;22.70;29.60
23271;DHT22;11804;51.118;17.058;2023-06-04T12:07:00;22.30;29.60
23271;DHT22;11804;51.118;17.058;2023-06-04T12:09:30;22.30;29.80
23271;DHT22;11804;51.118;17.058;2023-06-04T12:12:04;22.30;30.00
23271;DHT22;11804;51.118;17.058;2023-06-04T12:14:32;22.10;30.00
23271;DHT22;11804;51.118;17.058;2023-06-04T12:17:07;22.20;29.90
23271;DHT22;11804;51.118;17.058;2023-06-04T12:19:50;22.50;29.80
23271;DHT22;11804;51.118;17.058;2023-06-04T12:22:18;22.30;29.40
23271;DHT22;11804;51.118;17.058;2023-06-04T12:24:54;22.10;29.70
23271;DHT22;11804;51.118;17.058;2023-06-04T12:27:25;22.00;29.90
23271;DHT22;11804;51.118;17.058;2023-06-04T12:30:00;21.70;30.00
23271;DHT22;11804;51.118;17.058;2023-06-04T12:32:28;22.00;31.10
23271;DHT22;11804;51.118;17.058;2023-06-04T12:34:56;22.40;29.90
23271;DHT22;11804;51.118;17.058;2023-06-04T12:37:24;22.80;29.80
23271;DHT22;11804;51.118;17.058;2023-06-04T12:39:55;23.00;30.20
23271;DHT22;11804;51.118;17.058;2023-06-04T12:42:23;23.20;30.10
23271;DHT22;11804;51.118;17.058;2023-06-04T12:44:51;23.40;30.00
23271;DHT22;11804;51.118;17.058;2023-06-04T12:47:18;23.30;29.90
23271;DHT22;11804;51.118;17.058;2023-06-04T12:49:47;23.40;30.10
23271;DHT22;11804;51.118;17.058;2023-06-04T12:52:16;23.40;29.90
23271;DHT22;11804;51.118;17.058;2023-06-04T12:54:44;23.30;29.30
23271;DHT22;11804;51.118;17.058;2023-06-04T12:57:13;23.40;29.40
23271;DHT22;11804;51.118;17.058;2023-06-04T12:59:40;23.40;29.50
23271;DHT22;11804;51.118;17.058;2023-06-04T13:02:08;23.10;29.20
23271;DHT22;11804;51.118;17.058;2023-06-04T13:04:36;22.90;29.50
23271;DHT22;11804;51.118;17.058;2023-06-04T13:07:04;22.20;29.60
23271;DHT22;11804;51.118;17.058;2023-06-04T13:09:31;22.30;29.80
23271;DHT22;11804;51.118;17.058;2023-06-04T13:12:01;22.20;29.80
23271;DHT22;11804;51.118;17.058;2023-06-04T13:14:30;22.00;30.40
23271;DHT22;11804;51.118;17.058;2023-06-04T13:17:00;22.10;30.30
23271;DHT22;11804;51.118;17.058;2023-06-04T13:19:27;22.20;30.00
23271;DHT22;11804;51.118;17.058;2023-06-04T13:21:55;22.20;30.00
23271;DHT22;11804;51.118;17.058;2023-06-04T13:24:23;22.00;30.50
23271;DHT22;11804;51.118;17.058;2023-06-04T13:26:52;22.20;30.10
23271;DHT22;11804;51.118;17.058;2023-06-04T13:29:19;22.50;30.10
23271;DHT22;11804;51.118;17.058;2023-06-04T13:31:50;22.80;29.50
23271;DHT22;11804;51.118;17.058;2023-06-04T13:34:19;22.90;29.80
23271;DHT22;11804;51.118;17.058;2023-06-04T13:36:47;23.00;29.00
23271;DHT22;11804;51.118;17.058;2023-06-04T13:39:14;22.90;28.90
23271;DHT22;11804;51.118;17.058;2023-06-04T13:41:42;22.70;29.10
23271;DHT22;11804;51.118;17.058;2023-06-04T13:44:10;22.50;29.90
23271;DHT22;11804;51.118;17.058;2023-06-04T13:46:37;22.30;30.00
23271;DHT22;11804;51.118;17.058;2023-06-04T13:49:05;22.40;29.70
23271;DHT22;11804;51.118;17.058;2023-06-04T13:51:32;22.40;29.60
23271;DHT22;11804;51.118;17.058;2023-06-04T13:54:00;22.50;29.50
23271;DHT22;11804;51.118;17.058;2023-06-04T13:56:27;22.40;29.20
23271;DHT22;11804;51.118;17.058;2023-06-04T13:58:55;22.50;28.90
23271;DHT22;11804;51.118;17.058;2023-06-04T14:01:23;22.60;29.30
23271;DHT22;11804;51.118;17.058;2023-06-04T14:03:50;22.80;28.90
23271;DHT22;11804;51.118;17.058;2023-06-04T14:06:18;22.90;29.00
23271;DHT22;11804;51.118;17.058;2023-06-04T14:08:46;23.00;29.20
23271;DHT22;11804;51.118;17.058;2023-06-04T14:11:14;23.10;29.00
23271;DHT22;11804;51.118;17.058;2023-06-04T14:13:41;23.10;29.20
23271;DHT22;11804;51.118;17.058;2023-06-04T14:16:11;23.10;29.20
23271;DHT22;11804;51.118;17.058;2023-06-04T14:18:38;23.10;29.10
23271;DHT22;11804;51.118;17.058;2023-06-04T14:21:06;23.10;29.30
23271;DHT22;11804;51.118;17.058;2023-06-04T14:23:33;23.10;29.10
23271;DHT22;11804;51.118;17.058;2023-06-04T14:26:01;23.00;29.20
23271;DHT22;11804;51.118;17.058;2023-06-04T14:28:29;23.00;30.00
23271;DHT22;11804;51.118;17.058;2023-06-04T14:30:57;23.10;30.00
23271;DHT22;11804;51.118;17.058;2023-06-04T14:33:25;23.10;29.40
23271;DHT22;11804;51.118;17.058;2023-06-04T14:35:52;23.10;30.10
23271;DHT22;11804;51.118;17.058;2023-06-04T14:38:20;23.00;29.60
23271;DHT22;11804;51.118;17.058;2023-06-04T14:40:47;23.00;29.80
23271;DHT22;11804;51.118;17.058;2023-06-04T14:43:15;22.80;29.70
23271;DHT22;11804;51.118;17.058;2023-06-04T14:45:43;22.80;29.50
23271;DHT22;11804;51.118;17.058;2023-06-04T14:48:11;23.00;29.50
23271;DHT22;11804;51.118;17.058;2023-06-04T14:50:38;23.10;28.70
23271;DHT22;11804;51.118;17.058;2023-06-04T14:53:06;23.10;28.40
23271;DHT22;11804;51.118;17.058;2023-06-04T14:55:34;23.30;29.00
23271;DHT22;11804;51.118;17.058;2023-06-04T14:58:02;23.30;29.20
23271;DHT22;11804;51.118;17.058;2023-06-04T15:00:32;23.30;29.10
23271;DHT22;11804;51.118;17.058;2023-06-04T15:03:00;23.20;29.40
23271;DHT22;11804;51.118;17.058;2023-06-04T15:05:28;23.20;29.60
23271;DHT22;11804;51.118;17.058;2023-06-04T15:07:56;23.20;28.50
23271;DHT22;11804;51.118;17.058;2023-06-04T15:10:25;23.30;29.40
23271;DHT22;11804;51.118;17.058;2023-06-04T15:12:53;23.20;28.50
23271;DHT22;11804;51.118;17.058;2023-06-04T15:15:21;23.20;28.90
23271;DHT22;11804;51.118;17.058;2023-06-04T15:17:49;23.10;29.00
23271;DHT22;11804;51.118;17.058;2023-06-04T15:20:17;23.10;29.40
23271;DHT22;11804;51.118;17.058;2023-06-04T15:22:45;23.00;29.30
23271;DHT22;11804;51.118;17.058;2023-06-04T15:25:12;23.00;29.40
23271;DHT22;11804;51.118;17.058;2023-06-04T15:27:40;22.90;29.60
23271;DHT22;11804;51.118;17.058;2023-06-04T15:30:08;22.60;29.20
23271;DHT22;11804;51.118;17.058;2023-06-04T15:32:36;22.60;29.50
23271;DHT22;11804;51.118;17.058;2023-06-04T15:35:04;22.50;29.50
23271;DHT22;11804;51.118;17.058;2023-06-04T15:37:32;22.60;29.80
23271;DHT22;11804;51.118;17.058;2023-06-04T15:40:00;22.70;29.30